Connecticut State Prison, Connecticut
Current Conditions -  °F | °C
As of 10:51 AM on Saturday 25 Oct 2014 (Local Time) from KBDL Reporting Station
Few Clouds Few Clouds  
Wind Chill: 16°   Ceiling: Unl
Heat Index: 16°   Visibility: 10mi
Dew Point:   Wind: 9mph
Humidity: 47%   Direction: 290°WNW
Pressure: 29.77"   Gusts: NA
Location:  41.9956°N, 72.451°W
Report Text: KBDL 251451Z 29008KT 10SM FEW200 16/04 A2977 RMK AO2 SLP081 T01560044 58016
Loading
Personal Weather Stations






























Interactive Weather Map
Tropical Storm Tracking
New forecast layout! Learn more

10-Day Weather Forecast

Advertisements
Track Severe Weather on mobile